Meath Environmental Platform

Observations for Trim Patrick St

Time AQI Temp °C Hum % Pres Pa CO μg/m³ H₂S μg/m³ NO μg/m³ NO₂ μg/m³ O₃ μg/m³ SO₂ μg/m³ PM1 μg/m³ PM2.5 μg/m³ PM10 μg/m³
Thursday 27 August 2026
19:29 3 19.3 80 38,460 0 5.49 0.83 15.62 53.34 1.05 18.29 26.21 28.83
19:28 3 19.3 80 38,460 0 4.55 0.73 11.92 54.52 1.78 16.57 24.82 27.3
19:27 3 19.3 80 38,460 0 4.89 0.75 12.58 54.1 1.48 17.43 25.53 28.09
19:26 3 19.4 80 38,460 0 4.52 0.77 12.87 53.88 1.47 18.29 25.55 28.1
19:25 3 19.4 80 38,460 0 4.54 0.75 12.67 55.08 0.77 15.71 24.86 27.35
19:24 3 19.5 80 38,460 0 3.73 0.73 13.87 54.34 1.61 18.29 24.87 27.36
19:23 3 19.5 80 38,460 0 3.15 0.75 11 54.77 1.12 16.57 20.67 22.73
19:22 3 19.5 80 38,460 0 3.8 0.76 11.65 55.69 1.17 18.29 24.88 27.37
19:20 3 19.6 79 38,460 0 3.85 0.92 11.86 54.68 1.07 16.57 24.9 27.39
19:18 3 19.6 79 38,460 0 4.7 0.87 15.27 51.2 1.14 15.71 22.8 25.09
19:17 3 19.6 79 38,460 0 4.17 0.93 12.23 54.52 1.71 18.29 25.62 28.19
19:15 3 19.6 79 38,460 0 3.67 0.83 12.22 54.11 1.47 18.29 27.04 29.74
19:14 3 19.7 79 38,460 0 3.8 0.94 12.34 53.75 1.8 15.71 22.84 25.12
19:13 3 19.7 79 38,460 0 3.83 1.11 12.34 54.05 2.04 16.57 24.95 27.44
19:12 3 19.7 79 38,460 0 3.59 1.18 13 54.14 2.17 15.71 22.84 25.12
19:11 3 19.7 79 38,460 0 3.93 2.04 12.81 53.58 2.04 17.43 21.45 23.59
19:10 3 19.8 79 38,460 0 4.69 1.51 27.83 36.35 1.52 16.57 22.16 24.38
19:09 3 19.8 79 38,460 0 5.19 1.38 28.2 40.89 2.13 16.57 24.28 26.71
19:08 3 19.8 79 38,460 0 5.61 1.23 34.7 32.28 2.96 19.14 25.69 28.26
19:07 3 19.8 78 38,460 0 4.09 1.23 13.08 50.71 2.66 14.86 24.31 26.74